sensor_id;sensor_type;location;lat;lon;timestamp;P1;durP1;ratioP1;P2;durP2;ratioP2
20375;SDS011;10347;51.828;6.466;2024-03-08T00:00:18;22.88;;;14.43;;
20375;SDS011;10347;51.828;6.466;2024-03-08T00:02:44;19.45;;;12.48;;
20375;SDS011;10347;51.828;6.466;2024-03-08T00:05:11;19.83;;;13.32;;
20375;SDS011;10347;51.828;6.466;2024-03-08T00:07:37;21.33;;;14.60;;
20375;SDS011;10347;51.828;6.466;2024-03-08T00:10:04;19.25;;;13.27;;
20375;SDS011;10347;51.828;6.466;2024-03-08T00:12:31;22.00;;;13.75;;
20375;SDS011;10347;51.828;6.466;2024-03-08T00:14:56;18.67;;;13.13;;
20375;SDS011;10347;51.828;6.466;2024-03-08T00:17:22;19.90;;;14.00;;
20375;SDS011;10347;51.828;6.466;2024-03-08T00:19:51;25.20;;;15.18;;
20375;SDS011;10347;51.828;6.466;2024-03-08T00:22:16;21.30;;;13.23;;
20375;SDS011;10347;51.828;6.466;2024-03-08T00:24:42;20.27;;;13.82;;
20375;SDS011;10347;51.828;6.466;2024-03-08T00:27:08;20.48;;;14.10;;
20375;SDS011;10347;51.828;6.466;2024-03-08T00:29:34;20.60;;;13.52;;
20375;SDS011;10347;51.828;6.466;2024-03-08T00:32:00;21.88;;;13.73;;
20375;SDS011;10347;51.828;6.466;2024-03-08T00:34:26;18.10;;;13.13;;
20375;SDS011;10347;51.828;6.466;2024-03-08T00:36:51;22.08;;;14.32;;
20375;SDS011;10347;51.828;6.466;2024-03-08T00:39:17;23.38;;;14.90;;
20375;SDS011;10347;51.828;6.466;2024-03-08T00:41:46;24.48;;;15.82;;
20375;SDS011;10347;51.828;6.466;2024-03-08T00:44:12;20.02;;;14.88;;
20375;SDS011;10347;51.828;6.466;2024-03-08T00:46:38;19.38;;;13.73;;
20375;SDS011;10347;51.828;6.466;2024-03-08T00:49:03;25.08;;;16.38;;
20375;SDS011;10347;51.828;6.466;2024-03-08T00:51:29;23.30;;;15.25;;
20375;SDS011;10347;51.828;6.466;2024-03-08T00:53:54;21.65;;;15.15;;
20375;SDS011;10347;51.828;6.466;2024-03-08T00:56:20;23.45;;;15.60;;
20375;SDS011;10347;51.828;6.466;2024-03-08T00:58:46;20.38;;;14.77;;
20375;SDS011;10347;51.828;6.466;2024-03-08T01:01:12;27.75;;;16.92;;
20375;SDS011;10347;51.828;6.466;2024-03-08T01:03:42;22.95;;;15.35;;
20375;SDS011;10347;51.828;6.466;2024-03-08T01:06:08;21.52;;;15.18;;
20375;SDS011;10347;51.828;6.466;2024-03-08T01:08:34;25.27;;;16.70;;
20375;SDS011;10347;51.828;6.466;2024-03-08T01:10:59;20.67;;;14.43;;
20375;SDS011;10347;51.828;6.466;2024-03-08T01:13:25;24.33;;;15.40;;
20375;SDS011;10347;51.828;6.466;2024-03-08T01:15:51;23.63;;;15.63;;
20375;SDS011;10347;51.828;6.466;2024-03-08T01:18:16;22.13;;;15.68;;
20375;SDS011;10347;51.828;6.466;2024-03-08T01:20:42;22.50;;;15.57;;
20375;SDS011;10347;51.828;6.466;2024-03-08T01:23:07;20.77;;;14.63;;
20375;SDS011;10347;51.828;6.466;2024-03-08T01:25:34;23.35;;;14.98;;
20375;SDS011;10347;51.828;6.466;2024-03-08T01:27:59;24.63;;;15.60;;
20375;SDS011;10347;51.828;6.466;2024-03-08T01:30:25;24.38;;;17.13;;
20375;SDS011;10347;51.828;6.466;2024-03-08T01:32:50;23.75;;;15.80;;
20375;SDS011;10347;51.828;6.466;2024-03-08T01:35:16;22.02;;;15.27;;
20375;SDS011;10347;51.828;6.466;2024-03-08T01:37:43;27.25;;;16.85;;
20375;SDS011;10347;51.828;6.466;2024-03-08T01:40:09;27.08;;;17.50;;
20375;SDS011;10347;51.828;6.466;2024-03-08T01:42:34;26.40;;;17.33;;
20375;SDS011;10347;51.828;6.466;2024-03-08T01:45:03;25.98;;;17.00;;
20375;SDS011;10347;51.828;6.466;2024-03-08T01:47:32;24.83;;;17.75;;
20375;SDS011;10347;51.828;6.466;2024-03-08T01:49:59;26.55;;;17.40;;
20375;SDS011;10347;51.828;6.466;2024-03-08T01:52:31;26.65;;;18.40;;
20375;SDS011;10347;51.828;6.466;2024-03-08T01:55:01;26.50;;;16.98;;
20375;SDS011;10347;51.828;6.466;2024-03-08T01:57:29;25.38;;;16.73;;
20375;SDS011;10347;51.828;6.466;2024-03-08T01:59:58;27.88;;;18.10;;
20375;SDS011;10347;51.828;6.466;2024-03-08T02:02:28;28.10;;;17.30;;
20375;SDS011;10347;51.828;6.466;2024-03-08T02:04:56;25.60;;;18.35;;
20375;SDS011;10347;51.828;6.466;2024-03-08T02:07:22;25.52;;;17.42;;
20375;SDS011;10347;51.828;6.466;2024-03-08T02:09:48;28.67;;;19.48;;
20375;SDS011;10347;51.828;6.466;2024-03-08T02:12:13;29.30;;;19.48;;
20375;SDS011;10347;51.828;6.466;2024-03-08T02:14:39;32.40;;;20.08;;
20375;SDS011;10347;51.828;6.466;2024-03-08T02:17:05;27.58;;;17.83;;
20375;SDS011;10347;51.828;6.466;2024-03-08T02:19:30;27.73;;;18.90;;
20375;SDS011;10347;51.828;6.466;2024-03-08T02:21:57;27.38;;;18.95;;
20375;SDS011;10347;51.828;6.466;2024-03-08T02:24:24;25.75;;;17.58;;
20375;SDS011;10347;51.828;6.466;2024-03-08T02:26:50;24.67;;;17.73;;
20375;SDS011;10347;51.828;6.466;2024-03-08T02:29:16;25.77;;;17.75;;
20375;SDS011;10347;51.828;6.466;2024-03-08T02:31:42;26.40;;;18.40;;
20375;SDS011;10347;51.828;6.466;2024-03-08T02:34:08;26.80;;;18.63;;
20375;SDS011;10347;51.828;6.466;2024-03-08T02:36:34;26.88;;;18.05;;
20375;SDS011;10347;51.828;6.466;2024-03-08T02:39:03;23.58;;;17.00;;
20375;SDS011;10347;51.828;6.466;2024-03-08T02:41:30;25.75;;;18.30;;
20375;SDS011;10347;51.828;6.466;2024-03-08T02:43:55;27.05;;;18.17;;
20375;SDS011;10347;51.828;6.466;2024-03-08T02:46:21;24.10;;;16.45;;
20375;SDS011;10347;51.828;6.466;2024-03-08T02:48:47;24.42;;;16.50;;
20375;SDS011;10347;51.828;6.466;2024-03-08T02:51:12;24.45;;;16.55;;
20375;SDS011;10347;51.828;6.466;2024-03-08T02:53:38;24.40;;;17.13;;
20375;SDS011;10347;51.828;6.466;2024-03-08T02:56:04;22.38;;;16.27;;
20375;SDS011;10347;51.828;6.466;2024-03-08T02:58:33;27.05;;;17.80;;
20375;SDS011;10347;51.828;6.466;2024-03-08T03:00:59;25.65;;;17.48;;
20375;SDS011;10347;51.828;6.466;2024-03-08T03:03:24;26.95;;;17.83;;
20375;SDS011;10347;51.828;6.466;2024-03-08T03:05:51;23.58;;;16.83;;
20375;SDS011;10347;51.828;6.466;2024-03-08T03:08:20;22.63;;;15.73;;
20375;SDS011;10347;51.828;6.466;2024-03-08T03:10:46;29.20;;;18.92;;
20375;SDS011;10347;51.828;6.466;2024-03-08T03:13:12;25.02;;;17.42;;
20375;SDS011;10347;51.828;6.466;2024-03-08T03:15:39;28.52;;;19.20;;
20375;SDS011;10347;51.828;6.466;2024-03-08T03:18:07;25.67;;;17.50;;
20375;SDS011;10347;51.828;6.466;2024-03-08T03:20:33;27.50;;;18.55;;
20375;SDS011;10347;51.828;6.466;2024-03-08T03:23:02;28.52;;;17.90;;
20375;SDS011;10347;51.828;6.466;2024-03-08T03:25:28;27.48;;;17.85;;
20375;SDS011;10347;51.828;6.466;2024-03-08T03:27:58;29.10;;;17.92;;
20375;SDS011;10347;51.828;6.466;2024-03-08T03:30:24;26.25;;;17.90;;
20375;SDS011;10347;51.828;6.466;2024-03-08T03:32:57;25.30;;;17.52;;
20375;SDS011;10347;51.828;6.466;2024-03-08T03:35:27;24.58;;;17.08;;
20375;SDS011;10347;51.828;6.466;2024-03-08T03:37:54;21.15;;;15.95;;
20375;SDS011;10347;51.828;6.466;2024-03-08T03:40:37;28.35;;;18.50;;
20375;SDS011;10347;51.828;6.466;2024-03-08T03:43:05;26.17;;;17.95;;
20375;SDS011;10347;51.828;6.466;2024-03-08T03:45:30;27.98;;;17.95;;
20375;SDS011;10347;51.828;6.466;2024-03-08T03:47:59;28.80;;;18.33;;
20375;SDS011;10347;51.828;6.466;2024-03-08T03:50:32;31.77;;;19.25;;
20375;SDS011;10347;51.828;6.466;2024-03-08T03:53:01;27.77;;;18.55;;
20375;SDS011;10347;51.828;6.466;2024-03-08T03:55:27;28.75;;;19.17;;
20375;SDS011;10347;51.828;6.466;2024-03-08T03:57:53;28.50;;;18.55;;
20375;SDS011;10347;51.828;6.466;2024-03-08T04:00:19;30.58;;;19.60;;
20375;SDS011;10347;51.828;6.466;2024-03-08T04:02:45;26.90;;;17.88;;
20375;SDS011;10347;51.828;6.466;2024-03-08T04:05:11;26.63;;;18.42;;
20375;SDS011;10347;51.828;6.466;2024-03-08T04:07:37;30.27;;;18.45;;
20375;SDS011;10347;51.828;6.466;2024-03-08T04:10:04;29.30;;;18.73;;
20375;SDS011;10347;51.828;6.466;2024-03-08T04:12:34;32.38;;;19.33;;
20375;SDS011;10347;51.828;6.466;2024-03-08T04:15:00;27.70;;;17.65;;
20375;SDS011;10347;51.828;6.466;2024-03-08T04:17:26;27.90;;;17.20;;
20375;SDS011;10347;51.828;6.466;2024-03-08T04:19:52;27.63;;;18.58;;
20375;SDS011;10347;51.828;6.466;2024-03-08T04:22:18;32.03;;;19.52;;
20375;SDS011;10347;51.828;6.466;2024-03-08T04:24:44;26.52;;;17.73;;
20375;SDS011;10347;51.828;6.466;2024-03-08T04:27:10;25.33;;;17.55;;
20375;SDS011;10347;51.828;6.466;2024-03-08T04:29:36;26.38;;;17.90;;
20375;SDS011;10347;51.828;6.466;2024-03-08T04:32:03;28.35;;;18.92;;
20375;SDS011;10347;51.828;6.466;2024-03-08T04:34:30;28.67;;;17.50;;
20375;SDS011;10347;51.828;6.466;2024-03-08T04:36:59;32.90;;;19.42;;
20375;SDS011;10347;51.828;6.466;2024-03-08T04:39:29;28.13;;;18.60;;
20375;SDS011;10347;51.828;6.466;2024-03-08T04:41:56;29.83;;;18.88;;
20375;SDS011;10347;51.828;6.466;2024-03-08T04:44:25;30.27;;;19.45;;
20375;SDS011;10347;51.828;6.466;2024-03-08T04:46:50;24.13;;;16.77;;
20375;SDS011;10347;51.828;6.466;2024-03-08T04:49:16;32.47;;;19.20;;
20375;SDS011;10347;51.828;6.466;2024-03-08T04:51:41;30.48;;;18.98;;
20375;SDS011;10347;51.828;6.466;2024-03-08T04:54:07;27.65;;;18.30;;
20375;SDS011;10347;51.828;6.466;2024-03-08T04:56:33;28.17;;;18.23;;
20375;SDS011;10347;51.828;6.466;2024-03-08T04:58:59;26.77;;;17.90;;
20375;SDS011;10347;51.828;6.466;2024-03-08T05:01:24;31.10;;;19.25;;
20375;SDS011;10347;51.828;6.466;2024-03-08T05:03:51;29.05;;;19.55;;
20375;SDS011;10347;51.828;6.466;2024-03-08T05:06:19;28.10;;;18.20;;
20375;SDS011;10347;51.828;6.466;2024-03-08T05:08:45;32.08;;;19.85;;
20375;SDS011;10347;51.828;6.466;2024-03-08T05:11:11;28.58;;;17.52;;
20375;SDS011;10347;51.828;6.466;2024-03-08T05:13:39;26.13;;;16.80;;
20375;SDS011;10347;51.828;6.466;2024-03-08T05:16:05;31.95;;;20.48;;
20375;SDS011;10347;51.828;6.466;2024-03-08T05:18:32;28.33;;;18.52;;
20375;SDS011;10347;51.828;6.466;2024-03-08T05:20:58;27.42;;;19.15;;
20375;SDS011;10347;51.828;6.466;2024-03-08T05:23:24;25.45;;;16.77;;
20375;SDS011;10347;51.828;6.466;2024-03-08T05:25:49;26.95;;;18.35;;
20375;SDS011;10347;51.828;6.466;2024-03-08T05:28:15;28.48;;;18.00;;
20375;SDS011;10347;51.828;6.466;2024-03-08T05:30:41;31.10;;;19.08;;
20375;SDS011;10347;51.828;6.466;2024-03-08T05:33:06;27.08;;;18.17;;
20375;SDS011;10347;51.828;6.466;2024-03-08T05:35:36;27.98;;;18.70;;
20375;SDS011;10347;51.828;6.466;2024-03-08T05:38:02;29.98;;;18.73;;
20375;SDS011;10347;51.828;6.466;2024-03-08T05:40:27;33.22;;;20.50;;
20375;SDS011;10347;51.828;6.466;2024-03-08T05:42:57;28.02;;;17.55;;
20375;SDS011;10347;51.828;6.466;2024-03-08T05:45:23;35.50;;;21.75;;
20375;SDS011;10347;51.828;6.466;2024-03-08T05:47:50;27.95;;;19.00;;
20375;SDS011;10347;51.828;6.466;2024-03-08T05:50:16;30.33;;;20.15;;
20375;SDS011;10347;51.828;6.466;2024-03-08T05:52:42;32.92;;;21.92;;
20375;SDS011;10347;51.828;6.466;2024-03-08T05:55:08;29.85;;;19.65;;
20375;SDS011;10347;51.828;6.466;2024-03-08T05:57:35;31.58;;;20.35;;
20375;SDS011;10347;51.828;6.466;2024-03-08T06:00:04;26.33;;;18.02;;
20375;SDS011;10347;51.828;6.466;2024-03-08T06:02:30;27.58;;;18.80;;
20375;SDS011;10347;51.828;6.466;2024-03-08T06:04:56;29.27;;;19.20;;
20375;SDS011;10347;51.828;6.466;2024-03-08T06:07:22;28.13;;;18.33;;
20375;SDS011;10347;51.828;6.466;2024-03-08T06:09:47;30.85;;;19.77;;
20375;SDS011;10347;51.828;6.466;2024-03-08T06:12:14;27.38;;;18.48;;
20375;SDS011;10347;51.828;6.466;2024-03-08T06:14:44;34.42;;;20.77;;
20375;SDS011;10347;51.828;6.466;2024-03-08T06:17:10;39.78;;;22.15;;
20375;SDS011;10347;51.828;6.466;2024-03-08T06:19:36;33.40;;;21.55;;
20375;SDS011;10347;51.828;6.466;2024-03-08T06:22:02;32.22;;;20.17;;
20375;SDS011;10347;51.828;6.466;2024-03-08T06:24:30;31.33;;;19.25;;
20375;SDS011;10347;51.828;6.466;2024-03-08T06:26:56;35.85;;;20.65;;
20375;SDS011;10347;51.828;6.466;2024-03-08T06:29:22;35.30;;;21.85;;
20375;SDS011;10347;51.828;6.466;2024-03-08T06:31:49;32.42;;;20.25;;
20375;SDS011;10347;51.828;6.466;2024-03-08T06:34:15;36.53;;;22.50;;
20375;SDS011;10347;51.828;6.466;2024-03-08T06:36:40;36.10;;;22.00;;
20375;SDS011;10347;51.828;6.466;2024-03-08T06:39:06;33.65;;;21.08;;
20375;SDS011;10347;51.828;6.466;2024-03-08T06:41:35;35.95;;;22.30;;
20375;SDS011;10347;51.828;6.466;2024-03-08T06:44:01;35.85;;;22.80;;
20375;SDS011;10347;51.828;6.466;2024-03-08T06:46:27;37.58;;;24.27;;
20375;SDS011;10347;51.828;6.466;2024-03-08T06:48:53;37.30;;;23.13;;
20375;SDS011;10347;51.828;6.466;2024-03-08T06:51:18;38.28;;;23.30;;
20375;SDS011;10347;51.828;6.466;2024-03-08T06:53:44;39.05;;;24.58;;
20375;SDS011;10347;51.828;6.466;2024-03-08T06:56:10;38.72;;;23.92;;
20375;SDS011;10347;51.828;6.466;2024-03-08T06:58:36;40.88;;;23.23;;
20375;SDS011;10347;51.828;6.466;2024-03-08T07:01:02;41.17;;;25.08;;
20375;SDS011;10347;51.828;6.466;2024-03-08T07:03:32;38.00;;;24.15;;
20375;SDS011;10347;51.828;6.466;2024-03-08T07:05:58;45.47;;;24.60;;
20375;SDS011;10347;51.828;6.466;2024-03-08T07:08:23;43.30;;;25.40;;
20375;SDS011;10347;51.828;6.466;2024-03-08T07:10:49;37.10;;;23.65;;
20375;SDS011;10347;51.828;6.466;2024-03-08T07:13:15;41.72;;;24.83;;
20375;SDS011;10347;51.828;6.466;2024-03-08T07:15:41;42.35;;;24.73;;
20375;SDS011;10347;51.828;6.466;2024-03-08T07:18:08;41.10;;;23.90;;
20375;SDS011;10347;51.828;6.466;2024-03-08T07:20:34;41.85;;;24.92;;
20375;SDS011;10347;51.828;6.466;2024-03-08T07:23:02;39.30;;;24.30;;
20375;SDS011;10347;51.828;6.466;2024-03-08T07:25:28;41.35;;;24.50;;
20375;SDS011;10347;51.828;6.466;2024-03-08T07:27:54;41.70;;;25.35;;
20375;SDS011;10347;51.828;6.466;2024-03-08T07:30:21;38.25;;;23.25;;
20375;SDS011;10347;51.828;6.466;2024-03-08T07:33:17;38.38;;;22.83;;
20375;SDS011;10347;51.828;6.466;2024-03-08T07:35:42;35.35;;;22.23;;
20375;SDS011;10347;51.828;6.466;2024-03-08T07:38:10;41.35;;;24.27;;
20375;SDS011;10347;51.828;6.466;2024-03-08T07:40:37;42.50;;;25.52;;
20375;SDS011;10347;51.828;6.466;2024-03-08T07:43:05;41.30;;;24.48;;
20375;SDS011;10347;51.828;6.466;2024-03-08T07:45:31;41.03;;;25.83;;
20375;SDS011;10347;51.828;6.466;2024-03-08T07:47:57;36.97;;;23.65;;
20375;SDS011;10347;51.828;6.466;2024-03-08T07:50:23;42.28;;;24.67;;
20375;SDS011;10347;51.828;6.466;2024-03-08T07:52:49;39.47;;;24.08;;
20375;SDS011;10347;51.828;6.466;2024-03-08T07:55:14;40.72;;;23.90;;
20375;SDS011;10347;51.828;6.466;2024-03-08T07:57:40;40.83;;;24.50;;
20375;SDS011;10347;51.828;6.466;2024-03-08T08:00:07;42.75;;;24.42;;
20375;SDS011;10347;51.828;6.466;2024-03-08T08:02:34;37.97;;;23.83;;
20375;SDS011;10347;51.828;6.466;2024-03-08T08:05:00;42.92;;;25.52;;
20375;SDS011;10347;51.828;6.466;2024-03-08T08:07:26;39.58;;;22.85;;
20375;SDS011;10347;51.828;6.466;2024-03-08T08:09:52;39.28;;;24.25;;
20375;SDS011;10347;51.828;6.466;2024-03-08T08:12:18;43.65;;;25.63;;
20375;SDS011;10347;51.828;6.466;2024-03-08T08:14:44;39.65;;;25.10;;
20375;SDS011;10347;51.828;6.466;2024-03-08T08:17:09;40.85;;;24.00;;
20375;SDS011;10347;51.828;6.466;2024-03-08T08:19:36;42.75;;;25.63;;
20375;SDS011;10347;51.828;6.466;2024-03-08T08:22:01;42.72;;;25.23;;
20375;SDS011;10347;51.828;6.466;2024-03-08T08:24:27;37.30;;;23.45;;
20375;SDS011;10347;51.828;6.466;2024-03-08T08:26:53;36.85;;;24.17;;
20375;SDS011;10347;51.828;6.466;2024-03-08T08:29:18;39.88;;;24.35;;
20375;SDS011;10347;51.828;6.466;2024-03-08T08:31:45;41.08;;;24.35;;
20375;SDS011;10347;51.828;6.466;2024-03-08T08:34:11;43.40;;;25.17;;
20375;SDS011;10347;51.828;6.466;2024-03-08T08:36:38;39.30;;;25.20;;
20375;SDS011;10347;51.828;6.466;2024-03-08T08:39:04;36.20;;;22.27;;
20375;SDS011;10347;51.828;6.466;2024-03-08T08:41:36;40.10;;;24.38;;
20375;SDS011;10347;51.828;6.466;2024-03-08T08:44:01;35.60;;;23.10;;
20375;SDS011;10347;51.828;6.466;2024-03-08T08:46:27;43.03;;;25.02;;
20375;SDS011;10347;51.828;6.466;2024-03-08T08:48:53;38.00;;;23.75;;
20375;SDS011;10347;51.828;6.466;2024-03-08T08:51:19;40.92;;;25.00;;
20375;SDS011;10347;51.828;6.466;2024-03-08T08:53:44;38.40;;;24.33;;
20375;SDS011;10347;51.828;6.466;2024-03-08T08:56:12;40.28;;;24.58;;
20375;SDS011;10347;51.828;6.466;2024-03-08T08:58:41;41.08;;;24.42;;
20375;SDS011;10347;51.828;6.466;2024-03-08T09:01:08;41.47;;;24.17;;
20375;SDS011;10347;51.828;6.466;2024-03-08T09:03:35;42.22;;;24.48;;
20375;SDS011;10347;51.828;6.466;2024-03-08T09:06:05;38.45;;;23.63;;
20375;SDS011;10347;51.828;6.466;2024-03-08T09:08:35;39.45;;;24.50;;
20375;SDS011;10347;51.828;6.466;2024-03-08T09:11:04;38.05;;;23.17;;
20375;SDS011;10347;51.828;6.466;2024-03-08T09:13:30;35.72;;;23.23;;
20375;SDS011;10347;51.828;6.466;2024-03-08T09:15:56;40.30;;;24.73;;
20375;SDS011;10347;51.828;6.466;2024-03-08T09:18:21;40.55;;;24.73;;
20375;SDS011;10347;51.828;6.466;2024-03-08T09:20:48;42.60;;;24.88;;
20375;SDS011;10347;51.828;6.466;2024-03-08T09:23:14;37.70;;;24.70;;
20375;SDS011;10347;51.828;6.466;2024-03-08T09:25:41;36.63;;;23.38;;
20375;SDS011;10347;51.828;6.466;2024-03-08T09:28:08;40.63;;;24.60;;
20375;SDS011;10347;51.828;6.466;2024-03-08T09:30:34;41.88;;;25.30;;
20375;SDS011;10347;51.828;6.466;2024-03-08T09:33:00;37.70;;;23.90;;
20375;SDS011;10347;51.828;6.466;2024-03-08T09:35:27;37.63;;;23.85;;
20375;SDS011;10347;51.828;6.466;2024-03-08T09:37:52;36.25;;;22.95;;
20375;SDS011;10347;51.828;6.466;2024-03-08T09:40:18;34.78;;;23.02;;
20375;SDS011;10347;51.828;6.466;2024-03-08T09:42:45;38.15;;;23.77;;
20375;SDS011;10347;51.828;6.466;2024-03-08T09:45:12;41.17;;;25.25;;
20375;SDS011;10347;51.828;6.466;2024-03-08T09:47:42;33.72;;;21.20;;
20375;SDS011;10347;51.828;6.466;2024-03-08T09:50:09;38.28;;;22.60;;
20375;SDS011;10347;51.828;6.466;2024-03-08T09:52:36;34.47;;;21.83;;
20375;SDS011;10347;51.828;6.466;2024-03-08T09:55:02;34.35;;;22.30;;
20375;SDS011;10347;51.828;6.466;2024-03-08T09:57:30;38.22;;;22.65;;
20375;SDS011;10347;51.828;6.466;2024-03-08T09:59:56;34.72;;;22.60;;
20375;SDS011;10347;51.828;6.466;2024-03-08T10:02:22;32.10;;;21.15;;
20375;SDS011;10347;51.828;6.466;2024-03-08T10:04:48;36.13;;;22.75;;
20375;SDS011;10347;51.828;6.466;2024-03-08T10:07:13;35.53;;;21.63;;
20375;SDS011;10347;51.828;6.466;2024-03-08T10:09:39;36.85;;;21.60;;
20375;SDS011;10347;51.828;6.466;2024-03-08T10:12:06;39.10;;;23.40;;
20375;SDS011;10347;51.828;6.466;2024-03-08T10:14:32;35.28;;;22.45;;
20375;SDS011;10347;51.828;6.466;2024-03-08T10:16:58;32.88;;;21.25;;
20375;SDS011;10347;51.828;6.466;2024-03-08T10:19:25;33.97;;;22.30;;
20375;SDS011;10347;51.828;6.466;2024-03-08T10:21:52;37.42;;;22.65;;
20375;SDS011;10347;51.828;6.466;2024-03-08T10:24:18;32.33;;;20.83;;
20375;SDS011;10347;51.828;6.466;2024-03-08T10:26:44;36.25;;;22.52;;
20375;SDS011;10347;51.828;6.466;2024-03-08T10:29:11;33.25;;;21.38;;
20375;SDS011;10347;51.828;6.466;2024-03-08T10:31:42;39.03;;;22.63;;
20375;SDS011;10347;51.828;6.466;2024-03-08T10:34:09;35.72;;;21.52;;
20375;SDS011;10347;51.828;6.466;2024-03-08T10:36:35;37.33;;;21.65;;
20375;SDS011;10347;51.828;6.466;2024-03-08T10:39:03;34.13;;;21.65;;
20375;SDS011;10347;51.828;6.466;2024-03-08T10:41:41;30.88;;;19.92;;
20375;SDS011;10347;51.828;6.466;2024-03-08T10:44:23;32.65;;;20.25;;
20375;SDS011;10347;51.828;6.466;2024-03-08T10:47:18;33.42;;;21.33;;
20375;SDS011;10347;51.828;6.466;2024-03-08T10:49:51;33.55;;;20.33;;
20375;SDS011;10347;51.828;6.466;2024-03-08T10:52:20;28.83;;;19.25;;
20375;SDS011;10347;51.828;6.466;2024-03-08T10:54:49;41.42;;;24.95;;
20375;SDS011;10347;51.828;6.466;2024-03-08T10:57:17;37.05;;;22.55;;
20375;SDS011;10347;51.828;6.466;2024-03-08T10:59:45;31.90;;;20.13;;
20375;SDS011;10347;51.828;6.466;2024-03-08T11:02:14;29.83;;;20.65;;
20375;SDS011;10347;51.828;6.466;2024-03-08T11:04:48;32.25;;;20.23;;
20375;SDS011;10347;51.828;6.466;2024-03-08T11:07:14;30.10;;;20.13;;
20375;SDS011;10347;51.828;6.466;2024-03-08T11:09:45;30.67;;;20.20;;
20375;SDS011;10347;51.828;6.466;2024-03-08T11:14:46;32.05;;;20.02;;
20375;SDS011;10347;51.828;6.466;2024-03-08T11:17:20;26.70;;;17.80;;
20375;SDS011;10347;51.828;6.466;2024-03-08T11:19:47;28.45;;;19.25;;
20375;SDS011;10347;51.828;6.466;2024-03-08T11:22:20;28.33;;;17.95;;
20375;SDS011;10347;51.828;6.466;2024-03-08T11:25:02;29.38;;;19.23;;
20375;SDS011;10347;51.828;6.466;2024-03-08T11:27:38;30.02;;;18.02;;
20375;SDS011;10347;51.828;6.466;2024-03-08T11:30:07;28.42;;;18.73;;
20375;SDS011;10347;51.828;6.466;2024-03-08T11:32:37;29.70;;;19.05;;
20375;SDS011;10347;51.828;6.466;2024-03-08T11:35:06;29.13;;;18.50;;
20375;SDS011;10347;51.828;6.466;2024-03-08T11:37:42;31.02;;;18.52;;
20375;SDS011;10347;51.828;6.466;2024-03-08T11:40:11;29.55;;;19.10;;
20375;SDS011;10347;51.828;6.466;2024-03-08T11:42:44;27.92;;;18.05;;
20375;SDS011;10347;51.828;6.466;2024-03-08T11:45:14;26.70;;;18.25;;
20375;SDS011;10347;51.828;6.466;2024-03-08T11:47:42;29.10;;;19.48;;
20375;SDS011;10347;51.828;6.466;2024-03-08T11:50:11;31.25;;;18.85;;
20375;SDS011;10347;51.828;6.466;2024-03-08T11:52:37;27.50;;;17.88;;
20375;SDS011;10347;51.828;6.466;2024-03-08T11:55:03;25.92;;;17.63;;
20375;SDS011;10347;51.828;6.466;2024-03-08T11:57:30;22.58;;;16.02;;
20375;SDS011;10347;51.828;6.466;2024-03-08T11:59:57;22.23;;;15.85;;
20375;SDS011;10347;51.828;6.466;2024-03-08T12:02:30;23.75;;;16.52;;
20375;SDS011;10347;51.828;6.466;2024-03-08T12:04:57;21.48;;;15.30;;
20375;SDS011;10347;51.828;6.466;2024-03-08T12:07:24;26.23;;;16.88;;
20375;SDS011;10347;51.828;6.466;2024-03-08T12:12:47;25.88;;;17.95;;
20375;SDS011;10347;51.828;6.466;2024-03-08T12:15:16;27.98;;;18.17;;
20375;SDS011;10347;51.828;6.466;2024-03-08T12:17:43;26.15;;;17.88;;
20375;SDS011;10347;51.828;6.466;2024-03-08T12:20:23;28.20;;;19.25;;
20375;SDS011;10347;51.828;6.466;2024-03-08T12:22:54;28.52;;;18.60;;
20375;SDS011;10347;51.828;6.466;2024-03-08T12:25:32;24.45;;;18.10;;
20375;SDS011;10347;51.828;6.466;2024-03-08T12:28:08;27.25;;;18.23;;
20375;SDS011;10347;51.828;6.466;2024-03-08T12:30:48;25.63;;;17.45;;
20375;SDS011;10347;51.828;6.466;2024-03-08T12:33:16;25.98;;;17.95;;
20375;SDS011;10347;51.828;6.466;2024-03-08T12:35:49;26.02;;;17.92;;
20375;SDS011;10347;51.828;6.466;2024-03-08T12:38:20;26.50;;;17.90;;
20375;SDS011;10347;51.828;6.466;2024-03-08T12:40:50;27.80;;;17.55;;
20375;SDS011;10347;51.828;6.466;2024-03-08T12:43:16;26.25;;;17.42;;
20375;SDS011;10347;51.828;6.466;2024-03-08T12:45:42;31.20;;;19.38;;
20375;SDS011;10347;51.828;6.466;2024-03-08T12:48:14;26.10;;;18.10;;
20375;SDS011;10347;51.828;6.466;2024-03-08T12:50:42;28.80;;;18.65;;
20375;SDS011;10347;51.828;6.466;2024-03-08T12:53:12;27.27;;;18.10;;
20375;SDS011;10347;51.828;6.466;2024-03-08T12:55:38;27.05;;;16.33;;
20375;SDS011;10347;51.828;6.466;2024-03-08T12:58:05;27.05;;;18.35;;
20375;SDS011;10347;51.828;6.466;2024-03-08T13:00:35;26.92;;;17.77;;
20375;SDS011;10347;51.828;6.466;2024-03-08T13:03:07;29.65;;;18.40;;
20375;SDS011;10347;51.828;6.466;2024-03-08T13:05:35;26.00;;;18.35;;
20375;SDS011;10347;51.828;6.466;2024-03-08T13:08:04;28.52;;;18.08;;
20375;SDS011;10347;51.828;6.466;2024-03-08T13:10:32;26.17;;;17.02;;
20375;SDS011;10347;51.828;6.466;2024-03-08T13:12:57;25.33;;;17.05;;
20375;SDS011;10347;51.828;6.466;2024-03-08T13:15:23;23.35;;;16.65;;
20375;SDS011;10347;51.828;6.466;2024-03-08T13:17:48;23.75;;;17.40;;
20375;SDS011;10347;51.828;6.466;2024-03-08T13:20:14;30.05;;;18.38;;
20375;SDS011;10347;51.828;6.466;2024-03-08T13:22:44;25.13;;;16.80;;
20375;SDS011;10347;51.828;6.466;2024-03-08T13:25:10;27.98;;;17.98;;
20375;SDS011;10347;51.828;6.466;2024-03-08T13:27:38;25.27;;;16.27;;
20375;SDS011;10347;51.828;6.466;2024-03-08T13:30:07;25.23;;;16.58;;
20375;SDS011;10347;51.828;6.466;2024-03-08T13:32:41;25.67;;;17.27;;
20375;SDS011;10347;51.828;6.466;2024-03-08T13:35:13;24.27;;;17.27;;
20375;SDS011;10347;51.828;6.466;2024-03-08T13:37:39;24.52;;;16.50;;
20375;SDS011;10347;51.828;6.466;2024-03-08T13:40:06;25.00;;;16.80;;
20375;SDS011;10347;51.828;6.466;2024-03-08T13:42:36;24.05;;;16.30;;
20375;SDS011;10347;51.828;6.466;2024-03-08T13:45:08;25.42;;;17.63;;
20375;SDS011;10347;51.828;6.466;2024-03-08T13:47:36;24.63;;;17.40;;
20375;SDS011;10347;51.828;6.466;2024-03-08T13:50:02;24.85;;;17.25;;
20375;SDS011;10347;51.828;6.466;2024-03-08T13:52:29;23.02;;;15.75;;
20375;SDS011;10347;51.828;6.466;2024-03-08T13:54:55;24.33;;;16.35;;
20375;SDS011;10347;51.828;6.466;2024-03-08T13:57:20;25.63;;;16.70;;
20375;SDS011;10347;51.828;6.466;2024-03-08T13:59:47;24.55;;;17.38;;
20375;SDS011;10347;51.828;6.466;2024-03-08T14:02:14;28.85;;;17.75;;
20375;SDS011;10347;51.828;6.466;2024-03-08T14:04:40;24.73;;;17.58;;
20375;SDS011;10347;51.828;6.466;2024-03-08T14:07:07;25.60;;;18.00;;
20375;SDS011;10347;51.828;6.466;2024-03-08T14:09:33;29.52;;;18.95;;
20375;SDS011;10347;51.828;6.466;2024-03-08T14:12:02;24.33;;;15.65;;
20375;SDS011;10347;51.828;6.466;2024-03-08T14:14:32;24.75;;;16.77;;
20375;SDS011;10347;51.828;6.466;2024-03-08T14:17:00;28.70;;;17.27;;
20375;SDS011;10347;51.828;6.466;2024-03-08T14:19:26;23.13;;;15.82;;
20375;SDS011;10347;51.828;6.466;2024-03-08T14:21:52;23.88;;;16.58;;
20375;SDS011;10347;51.828;6.466;2024-03-08T14:24:18;23.27;;;16.23;;
20375;SDS011;10347;51.828;6.466;2024-03-08T14:26:44;27.83;;;18.02;;